sensor_id;sensor_type;location;lat;lon;timestamp;temperature;humidity
16627;DHT22;8427;52.204;7.202;2022-07-22T00:00:52;16.00;99.90
16627;DHT22;8427;52.204;7.202;2022-07-22T00:03:20;16.00;99.90
16627;DHT22;8427;52.204;7.202;2022-07-22T00:05:48;16.00;99.90
16627;DHT22;8427;52.204;7.202;2022-07-22T00:08:16;16.10;99.90
16627;DHT22;8427;52.204;7.202;2022-07-22T00:10:45;15.90;99.90
16627;DHT22;8427;52.204;7.202;2022-07-22T00:13:13;15.90;99.90
16627;DHT22;8427;52.204;7.202;2022-07-22T00:15:41;15.90;99.90
16627;DHT22;8427;52.204;7.202;2022-07-22T00:18:10;16.00;99.90
16627;DHT22;8427;52.204;7.202;2022-07-22T00:20:38;16.00;99.90
16627;DHT22;8427;52.204;7.202;2022-07-22T00:23:06;16.00;99.90
16627;DHT22;8427;52.204;7.202;2022-07-22T00:25:35;16.00;99.90
16627;DHT22;8427;52.204;7.202;2022-07-22T00:28:03;16.00;99.90
16627;DHT22;8427;52.204;7.202;2022-07-22T00:30:31;16.00;99.90
16627;DHT22;8427;52.204;7.202;2022-07-22T00:32:59;16.00;99.90
16627;DHT22;8427;52.204;7.202;2022-07-22T00:35:29;16.00;99.90
16627;DHT22;8427;52.204;7.202;2022-07-22T00:37:57;16.00;99.90
16627;DHT22;8427;52.204;7.202;2022-07-22T00:40:25;15.90;99.90
16627;DHT22;8427;52.204;7.202;2022-07-22T00:42:53;15.90;99.90
16627;DHT22;8427;52.204;7.202;2022-07-22T00:45:21;15.90;99.90
16627;DHT22;8427;52.204;7.202;2022-07-22T00:47:49;15.90;99.90
16627;DHT22;8427;52.204;7.202;2022-07-22T00:50:17;15.90;99.90
16627;DHT22;8427;52.204;7.202;2022-07-22T00:52:47;15.80;99.90
16627;DHT22;8427;52.204;7.202;2022-07-22T00:55:15;15.90;99.90
16627;DHT22;8427;52.204;7.202;2022-07-22T00:57:44;15.90;99.90
16627;DHT22;8427;52.204;7.202;2022-07-22T01:00:15;15.90;99.90
16627;DHT22;8427;52.204;7.202;2022-07-22T01:02:44;15.90;99.90
16627;DHT22;8427;52.204;7.202;2022-07-22T01:05:12;15.90;99.90
16627;DHT22;8427;52.204;7.202;2022-07-22T01:07:40;15.90;99.90
16627;DHT22;8427;52.204;7.202;2022-07-22T01:10:10;15.80;99.90
16627;DHT22;8427;52.204;7.202;2022-07-22T01:12:38;15.80;99.90
16627;DHT22;8427;52.204;7.202;2022-07-22T01:15:07;15.80;99.90
16627;DHT22;8427;52.204;7.202;2022-07-22T01:17:35;15.80;99.90
16627;DHT22;8427;52.204;7.202;2022-07-22T01:20:07;15.80;99.90
16627;DHT22;8427;52.204;7.202;2022-07-22T01:22:35;15.80;99.90
16627;DHT22;8427;52.204;7.202;2022-07-22T01:25:04;15.80;99.90
16627;DHT22;8427;52.204;7.202;2022-07-22T01:27:32;15.80;99.90
16627;DHT22;8427;52.204;7.202;2022-07-22T01:30:00;15.80;99.90
16627;DHT22;8427;52.204;7.202;2022-07-22T01:32:28;15.90;99.90
16627;DHT22;8427;52.204;7.202;2022-07-22T01:34:56;15.90;99.90
16627;DHT22;8427;52.204;7.202;2022-07-22T01:37:25;15.80;99.90
16627;DHT22;8427;52.204;7.202;2022-07-22T01:39:54;15.80;99.90
16627;DHT22;8427;52.204;7.202;2022-07-22T01:42:22;15.80;99.90
16627;DHT22;8427;52.204;7.202;2022-07-22T01:44:50;15.70;99.90
16627;DHT22;8427;52.204;7.202;2022-07-22T01:47:18;15.80;99.90
16627;DHT22;8427;52.204;7.202;2022-07-22T01:49:46;15.80;99.90
16627;DHT22;8427;52.204;7.202;2022-07-22T01:52:16;15.80;99.90
16627;DHT22;8427;52.204;7.202;2022-07-22T01:54:45;15.80;99.90
16627;DHT22;8427;52.204;7.202;2022-07-22T01:57:13;15.80;99.90
16627;DHT22;8427;52.204;7.202;2022-07-22T01:59:41;15.80;99.90
16627;DHT22;8427;52.204;7.202;2022-07-22T02:02:09;15.80;99.90
16627;DHT22;8427;52.204;7.202;2022-07-22T02:04:37;15.80;99.90
16627;DHT22;8427;52.204;7.202;2022-07-22T02:07:05;15.70;99.90
16627;DHT22;8427;52.204;7.202;2022-07-22T02:09:33;15.60;99.90
16627;DHT22;8427;52.204;7.202;2022-07-22T02:12:03;15.70;99.90
16627;DHT22;8427;52.204;7.202;2022-07-22T02:14:31;15.70;99.90
16627;DHT22;8427;52.204;7.202;2022-07-22T02:16:59;15.60;99.90
16627;DHT22;8427;52.204;7.202;2022-07-22T02:19:27;15.60;99.90
16627;DHT22;8427;52.204;7.202;2022-07-22T02:21:55;15.60;99.90
16627;DHT22;8427;52.204;7.202;2022-07-22T02:24:23;15.60;99.90
16627;DHT22;8427;52.204;7.202;2022-07-22T02:26:51;15.50;99.90
16627;DHT22;8427;52.204;7.202;2022-07-22T02:29:21;15.60;99.90
16627;DHT22;8427;52.204;7.202;2022-07-22T02:31:49;15.50;99.90
16627;DHT22;8427;52.204;7.202;2022-07-22T02:34:17;15.60;99.90
16627;DHT22;8427;52.204;7.202;2022-07-22T02:36:47;15.50;99.90
16627;DHT22;8427;52.204;7.202;2022-07-22T02:39:16;15.60;99.90
16627;DHT22;8427;52.204;7.202;2022-07-22T02:41:44;15.50;99.90
16627;DHT22;8427;52.204;7.202;2022-07-22T02:44:12;15.50;99.90
16627;DHT22;8427;52.204;7.202;2022-07-22T02:46:42;15.50;99.90
16627;DHT22;8427;52.204;7.202;2022-07-22T02:49:10;15.60;99.90
16627;DHT22;8427;52.204;7.202;2022-07-22T02:51:38;15.50;99.90
16627;DHT22;8427;52.204;7.202;2022-07-22T02:54:06;15.50;99.90
16627;DHT22;8427;52.204;7.202;2022-07-22T02:56:34;15.60;99.90
16627;DHT22;8427;52.204;7.202;2022-07-22T02:59:03;15.60;99.90
16627;DHT22;8427;52.204;7.202;2022-07-22T03:01:31;15.60;99.90
16627;DHT22;8427;52.204;7.202;2022-07-22T03:04:01;15.60;99.90
16627;DHT22;8427;52.204;7.202;2022-07-22T03:06:29;15.50;99.90
16627;DHT22;8427;52.204;7.202;2022-07-22T03:08:57;15.50;99.90
16627;DHT22;8427;52.204;7.202;2022-07-22T03:11:26;15.60;99.90
16627;DHT22;8427;52.204;7.202;2022-07-22T03:13:54;15.50;99.90
16627;DHT22;8427;52.204;7.202;2022-07-22T03:16:22;15.40;99.90
16627;DHT22;8427;52.204;7.202;2022-07-22T03:18:50;15.50;99.90
16627;DHT22;8427;52.204;7.202;2022-07-22T03:21:20;15.40;99.90
16627;DHT22;8427;52.204;7.202;2022-07-22T03:23:48;15.40;99.90
16627;DHT22;8427;52.204;7.202;2022-07-22T03:26:20;15.40;99.90
16627;DHT22;8427;52.204;7.202;2022-07-22T03:28:48;15.50;99.90
16627;DHT22;8427;52.204;7.202;2022-07-22T03:31:16;15.50;99.90
16627;DHT22;8427;52.204;7.202;2022-07-22T03:33:44;15.50;99.90
16627;DHT22;8427;52.204;7.202;2022-07-22T03:36:12;15.50;99.90
16627;DHT22;8427;52.204;7.202;2022-07-22T03:38:42;15.40;99.90
16627;DHT22;8427;52.204;7.202;2022-07-22T03:41:10;15.50;99.90
16627;DHT22;8427;52.204;7.202;2022-07-22T03:43:38;15.50;99.90
16627;DHT22;8427;52.204;7.202;2022-07-22T03:46:06;15.50;99.90
16627;DHT22;8427;52.204;7.202;2022-07-22T03:48:34;15.50;99.90
16627;DHT22;8427;52.204;7.202;2022-07-22T03:51:02;15.50;99.90
16627;DHT22;8427;52.204;7.202;2022-07-22T03:53:30;15.50;99.90
16627;DHT22;8427;52.204;7.202;2022-07-22T03:56:03;15.50;99.90
16627;DHT22;8427;52.204;7.202;2022-07-22T03:58:32;15.40;99.90
16627;DHT22;8427;52.204;7.202;2022-07-22T04:01:00;15.50;99.90
16627;DHT22;8427;52.204;7.202;2022-07-22T04:03:28;15.40;99.90
16627;DHT22;8427;52.204;7.202;2022-07-22T04:05:56;15.50;99.90
16627;DHT22;8427;52.204;7.202;2022-07-22T04:08:24;15.50;99.90
16627;DHT22;8427;52.204;7.202;2022-07-22T04:10:52;15.50;99.90
16627;DHT22;8427;52.204;7.202;2022-07-22T04:13:23;15.50;99.90
16627;DHT22;8427;52.204;7.202;2022-07-22T04:15:51;15.60;99.90
16627;DHT22;8427;52.204;7.202;2022-07-22T04:18:19;15.50;99.90
16627;DHT22;8427;52.204;7.202;2022-07-22T04:20:48;15.50;99.90
16627;DHT22;8427;52.204;7.202;2022-07-22T04:23:16;15.50;99.90
16627;DHT22;8427;52.204;7.202;2022-07-22T04:25:47;15.50;99.90
16627;DHT22;8427;52.204;7.202;2022-07-22T04:28:16;15.60;99.90
16627;DHT22;8427;52.204;7.202;2022-07-22T04:30:45;15.60;99.90
16627;DHT22;8427;52.204;7.202;2022-07-22T04:33:13;15.60;99.90
16627;DHT22;8427;52.204;7.202;2022-07-22T04:35:41;15.60;99.90
16627;DHT22;8427;52.204;7.202;2022-07-22T04:38:10;15.70;99.90
16627;DHT22;8427;52.204;7.202;2022-07-22T04:40:38;15.80;99.90
16627;DHT22;8427;52.204;7.202;2022-07-22T04:43:06;15.90;99.90
16627;DHT22;8427;52.204;7.202;2022-07-22T04:45:34;15.90;99.90
16627;DHT22;8427;52.204;7.202;2022-07-22T04:48:04;15.90;99.90
16627;DHT22;8427;52.204;7.202;2022-07-22T04:50:32;15.90;99.90
16627;DHT22;8427;52.204;7.202;2022-07-22T04:53:00;16.00;99.90
16627;DHT22;8427;52.204;7.202;2022-07-22T04:55:30;16.00;99.90
16627;DHT22;8427;52.204;7.202;2022-07-22T04:57:59;16.00;99.90
16627;DHT22;8427;52.204;7.202;2022-07-22T05:00:27;16.10;99.90
16627;DHT22;8427;52.204;7.202;2022-07-22T05:02:55;16.20;99.90
16627;DHT22;8427;52.204;7.202;2022-07-22T05:05:25;16.20;99.90
16627;DHT22;8427;52.204;7.202;2022-07-22T05:07:53;16.20;99.90
16627;DHT22;8427;52.204;7.202;2022-07-22T05:10:21;16.30;99.90
16627;DHT22;8427;52.204;7.202;2022-07-22T05:12:49;16.30;99.90
16627;DHT22;8427;52.204;7.202;2022-07-22T05:15:18;16.30;99.90
16627;DHT22;8427;52.204;7.202;2022-07-22T05:17:48;16.40;99.90
16627;DHT22;8427;52.204;7.202;2022-07-22T05:20:19;16.30;99.90
16627;DHT22;8427;52.204;7.202;2022-07-22T05:22:48;16.30;99.90
16627;DHT22;8427;52.204;7.202;2022-07-22T05:25:16;16.30;99.90
16627;DHT22;8427;52.204;7.202;2022-07-22T05:27:50;16.20;99.90
16627;DHT22;8427;52.204;7.202;2022-07-22T05:30:18;16.20;99.90
16627;DHT22;8427;52.204;7.202;2022-07-22T05:32:50;16.30;99.90
16627;DHT22;8427;52.204;7.202;2022-07-22T05:35:18;16.40;99.90
16627;DHT22;8427;52.204;7.202;2022-07-22T05:37:48;16.40;99.90
16627;DHT22;8427;52.204;7.202;2022-07-22T05:40:16;16.40;99.90
16627;DHT22;8427;52.204;7.202;2022-07-22T05:42:44;16.40;99.90
16627;DHT22;8427;52.204;7.202;2022-07-22T05:45:12;16.50;99.90
16627;DHT22;8427;52.204;7.202;2022-07-22T05:47:41;16.50;99.90
16627;DHT22;8427;52.204;7.202;2022-07-22T05:50:09;16.70;99.90
16627;DHT22;8427;52.204;7.202;2022-07-22T05:52:37;16.80;99.90
16627;DHT22;8427;52.204;7.202;2022-07-22T05:55:09;17.00;99.90
16627;DHT22;8427;52.204;7.202;2022-07-22T05:57:38;17.10;99.90
16627;DHT22;8427;52.204;7.202;2022-07-22T06:00:07;17.00;99.90
16627;DHT22;8427;52.204;7.202;2022-07-22T06:02:35;17.10;99.90
16627;DHT22;8427;52.204;7.202;2022-07-22T06:05:04;17.10;99.90
16627;DHT22;8427;52.204;7.202;2022-07-22T06:07:32;17.00;99.90
16627;DHT22;8427;52.204;7.202;2022-07-22T06:10:00;17.20;99.90
16627;DHT22;8427;52.204;7.202;2022-07-22T06:12:30;17.50;99.90
16627;DHT22;8427;52.204;7.202;2022-07-22T06:14:58;17.50;99.90
16627;DHT22;8427;52.204;7.202;2022-07-22T06:17:26;17.70;99.90
16627;DHT22;8427;52.204;7.202;2022-07-22T06:19:54;17.80;99.90
16627;DHT22;8427;52.204;7.202;2022-07-22T06:22:22;17.90;99.90
16627;DHT22;8427;52.204;7.202;2022-07-22T06:24:50;17.90;99.90
16627;DHT22;8427;52.204;7.202;2022-07-22T06:27:20;18.00;99.90
16627;DHT22;8427;52.204;7.202;2022-07-22T06:29:49;17.90;99.90
16627;DHT22;8427;52.204;7.202;2022-07-22T06:32:17;18.00;99.90
16627;DHT22;8427;52.204;7.202;2022-07-22T06:34:47;18.10;99.90
16627;DHT22;8427;52.204;7.202;2022-07-22T06:37:15;18.20;99.90
16627;DHT22;8427;52.204;7.202;2022-07-22T06:39:43;18.30;99.90
16627;DHT22;8427;52.204;7.202;2022-07-22T06:42:13;18.30;99.90
16627;DHT22;8427;52.204;7.202;2022-07-22T06:44:42;18.40;99.90
16627;DHT22;8427;52.204;7.202;2022-07-22T06:47:11;18.40;99.90
16627;DHT22;8427;52.204;7.202;2022-07-22T06:49:40;18.30;99.90
16627;DHT22;8427;52.204;7.202;2022-07-22T06:52:10;18.30;99.90
16627;DHT22;8427;52.204;7.202;2022-07-22T06:54:38;18.30;99.90
16627;DHT22;8427;52.204;7.202;2022-07-22T06:57:06;18.20;99.90
16627;DHT22;8427;52.204;7.202;2022-07-22T06:59:34;18.50;99.90
16627;DHT22;8427;52.204;7.202;2022-07-22T07:02:02;18.50;99.90
16627;DHT22;8427;52.204;7.202;2022-07-22T07:04:37;18.40;99.90
16627;DHT22;8427;52.204;7.202;2022-07-22T07:07:05;18.40;99.90
16627;DHT22;8427;52.204;7.202;2022-07-22T07:09:38;18.30;99.90
16627;DHT22;8427;52.204;7.202;2022-07-22T07:12:07;18.40;99.90
16627;DHT22;8427;52.204;7.202;2022-07-22T07:14:35;18.20;99.90
16627;DHT22;8427;52.204;7.202;2022-07-22T07:17:10;18.20;99.90
16627;DHT22;8427;52.204;7.202;2022-07-22T07:19:42;18.20;99.90
16627;DHT22;8427;52.204;7.202;2022-07-22T07:22:10;18.40;99.90
16627;DHT22;8427;52.204;7.202;2022-07-22T07:24:38;18.40;99.90
16627;DHT22;8427;52.204;7.202;2022-07-22T07:27:06;18.40;99.90
16627;DHT22;8427;52.204;7.202;2022-07-22T07:29:34;18.40;99.90
16627;DHT22;8427;52.204;7.202;2022-07-22T07:32:04;18.20;99.90
16627;DHT22;8427;52.204;7.202;2022-07-22T07:34:32;18.10;99.90
16627;DHT22;8427;52.204;7.202;2022-07-22T07:37:02;18.10;99.90
16627;DHT22;8427;52.204;7.202;2022-07-22T07:39:30;18.10;99.90
16627;DHT22;8427;52.204;7.202;2022-07-22T07:41:58;18.30;99.90
16627;DHT22;8427;52.204;7.202;2022-07-22T07:44:26;18.50;99.90
16627;DHT22;8427;52.204;7.202;2022-07-22T07:46:55;18.40;99.90
16627;DHT22;8427;52.204;7.202;2022-07-22T07:49:23;18.60;99.90
16627;DHT22;8427;52.204;7.202;2022-07-22T07:51:51;18.60;99.90
16627;DHT22;8427;52.204;7.202;2022-07-22T07:54:23;18.70;99.90
16627;DHT22;8427;52.204;7.202;2022-07-22T07:56:53;18.80;99.90
16627;DHT22;8427;52.204;7.202;2022-07-22T07:59:22;18.80;99.90
16627;DHT22;8427;52.204;7.202;2022-07-22T08:01:54;18.50;99.90
16627;DHT22;8427;52.204;7.202;2022-07-22T08:04:26;18.60;99.90
16627;DHT22;8427;52.204;7.202;2022-07-22T08:07:03;18.40;99.90
16627;DHT22;8427;52.204;7.202;2022-07-22T08:09:32;18.50;99.90
16627;DHT22;8427;52.204;7.202;2022-07-22T08:12:03;18.50;99.90
16627;DHT22;8427;52.204;7.202;2022-07-22T08:14:31;18.80;99.90
16627;DHT22;8427;52.204;7.202;2022-07-22T08:16:59;19.00;99.90
16627;DHT22;8427;52.204;7.202;2022-07-22T08:19:28;19.00;99.90
16627;DHT22;8427;52.204;7.202;2022-07-22T08:21:56;19.00;99.90
16627;DHT22;8427;52.204;7.202;2022-07-22T08:24:24;18.90;99.90
16627;DHT22;8427;52.204;7.202;2022-07-22T08:26:54;18.90;99.90
16627;DHT22;8427;52.204;7.202;2022-07-22T08:29:22;18.90;99.90
16627;DHT22;8427;52.204;7.202;2022-07-22T08:31:51;18.90;99.90
16627;DHT22;8427;52.204;7.202;2022-07-22T08:34:19;18.90;99.90
16627;DHT22;8427;52.204;7.202;2022-07-22T08:36:47;18.90;99.90
16627;DHT22;8427;52.204;7.202;2022-07-22T08:39:15;18.90;99.90
16627;DHT22;8427;52.204;7.202;2022-07-22T08:41:49;18.90;99.90
16627;DHT22;8427;52.204;7.202;2022-07-22T08:44:19;19.00;99.90
16627;DHT22;8427;52.204;7.202;2022-07-22T08:46:48;19.00;99.90
16627;DHT22;8427;52.204;7.202;2022-07-22T08:49:17;19.20;99.90
16627;DHT22;8427;52.204;7.202;2022-07-22T08:51:45;19.40;99.90
16627;DHT22;8427;52.204;7.202;2022-07-22T08:54:14;19.40;99.90
16627;DHT22;8427;52.204;7.202;2022-07-22T08:56:46;19.30;99.90
16627;DHT22;8427;52.204;7.202;2022-07-22T08:59:14;19.30;99.90
16627;DHT22;8427;52.204;7.202;2022-07-22T09:02:01;19.40;99.90
16627;DHT22;8427;52.204;7.202;2022-07-22T09:04:30;19.60;99.90
16627;DHT22;8427;52.204;7.202;2022-07-22T09:06:59;19.80;99.90
16627;DHT22;8427;52.204;7.202;2022-07-22T09:09:32;19.80;99.90
16627;DHT22;8427;52.204;7.202;2022-07-22T09:12:05;19.50;99.90
16627;DHT22;8427;52.204;7.202;2022-07-22T09:14:43;19.30;99.90
16627;DHT22;8427;52.204;7.202;2022-07-22T09:17:32;19.50;99.90
16627;DHT22;8427;52.204;7.202;2022-07-22T09:20:14;19.30;99.90
16627;DHT22;8427;52.204;7.202;2022-07-22T09:22:52;19.30;99.90
16627;DHT22;8427;52.204;7.202;2022-07-22T09:25:23;19.00;99.90
16627;DHT22;8427;52.204;7.202;2022-07-22T09:27:54;18.90;99.90
16627;DHT22;8427;52.204;7.202;2022-07-22T09:30:25;18.90;99.90
16627;DHT22;8427;52.204;7.202;2022-07-22T09:32:56;19.10;99.90
16627;DHT22;8427;52.204;7.202;2022-07-22T09:35:26;19.30;99.90
16627;DHT22;8427;52.204;7.202;2022-07-22T09:37:57;19.50;99.90
16627;DHT22;8427;52.204;7.202;2022-07-22T09:40:28;19.60;99.90
16627;DHT22;8427;52.204;7.202;2022-07-22T09:42:58;19.60;99.90
16627;DHT22;8427;52.204;7.202;2022-07-22T09:45:28;19.50;99.90
16627;DHT22;8427;52.204;7.202;2022-07-22T09:47:59;19.80;99.90
16627;DHT22;8427;52.204;7.202;2022-07-22T09:50:29;19.80;99.90
16627;DHT22;8427;52.204;7.202;2022-07-22T09:52:59;19.80;99.90
16627;DHT22;8427;52.204;7.202;2022-07-22T09:55:30;19.80;99.90
16627;DHT22;8427;52.204;7.202;2022-07-22T09:58:00;19.80;99.90
16627;DHT22;8427;52.204;7.202;2022-07-22T10:00:28;19.80;99.90
16627;DHT22;8427;52.204;7.202;2022-07-22T10:03:00;19.40;99.90
16627;DHT22;8427;52.204;7.202;2022-07-22T10:05:31;19.40;99.90
16627;DHT22;8427;52.204;7.202;2022-07-22T10:08:00;19.30;99.90
16627;DHT22;8427;52.204;7.202;2022-07-22T10:10:31;19.50;99.90
16627;DHT22;8427;52.204;7.202;2022-07-22T10:13:01;19.40;99.90
16627;DHT22;8427;52.204;7.202;2022-07-22T10:15:30;19.20;99.90
16627;DHT22;8427;52.204;7.202;2022-07-22T10:18:06;19.30;99.90
16627;DHT22;8427;52.204;7.202;2022-07-22T10:20:35;19.10;99.90
16627;DHT22;8427;52.204;7.202;2022-07-22T10:23:05;19.20;99.90
16627;DHT22;8427;52.204;7.202;2022-07-22T10:25:49;19.40;99.90
16627;DHT22;8427;52.204;7.202;2022-07-22T10:28:23;19.50;99.90
16627;DHT22;8427;52.204;7.202;2022-07-22T10:30:52;19.60;99.90
16627;DHT22;8427;52.204;7.202;2022-07-22T10:33:24;19.60;99.90
16627;DHT22;8427;52.204;7.202;2022-07-22T10:35:58;19.80;99.90
16627;DHT22;8427;52.204;7.202;2022-07-22T10:38:27;20.00;99.90
16627;DHT22;8427;52.204;7.202;2022-07-22T10:40:58;20.10;99.90
16627;DHT22;8427;52.204;7.202;2022-07-22T10:43:28;19.90;99.90
16627;DHT22;8427;52.204;7.202;2022-07-22T10:45:57;20.30;99.90
16627;DHT22;8427;52.204;7.202;2022-07-22T10:48:45;20.40;99.90
16627;DHT22;8427;52.204;7.202;2022-07-22T10:51:15;20.50;99.90
16627;DHT22;8427;52.204;7.202;2022-07-22T10:53:47;20.50;99.90
16627;DHT22;8427;52.204;7.202;2022-07-22T10:56:22;20.80;99.90
16627;DHT22;8427;52.204;7.202;2022-07-22T10:59:00;21.00;99.90
16627;DHT22;8427;52.204;7.202;2022-07-22T11:01:36;21.10;99.90
16627;DHT22;8427;52.204;7.202;2022-07-22T11:04:13;20.90;99.90
16627;DHT22;8427;52.204;7.202;2022-07-22T11:06:46;20.80;99.90
16627;DHT22;8427;52.204;7.202;2022-07-22T11:09:15;20.70;99.90
16627;DHT22;8427;52.204;7.202;2022-07-22T11:11:46;20.90;99.90
16627;DHT22;8427;52.204;7.202;2022-07-22T11:14:24;20.90;99.90
16627;DHT22;8427;52.204;7.202;2022-07-22T11:16:55;20.60;99.90
16627;DHT22;8427;52.204;7.202;2022-07-22T11:19:27;20.20;99.90
16627;DHT22;8427;52.204;7.202;2022-07-22T11:21:57;20.10;99.90
16627;DHT22;8427;52.204;7.202;2022-07-22T11:24:25;20.00;99.90
16627;DHT22;8427;52.204;7.202;2022-07-22T11:26:55;19.60;99.90
16627;DHT22;8427;52.204;7.202;2022-07-22T11:29:33;19.40;99.90
16627;DHT22;8427;52.204;7.202;2022-07-22T11:32:04;19.30;99.90
16627;DHT22;8427;52.204;7.202;2022-07-22T11:34:36;19.30;99.90
16627;DHT22;8427;52.204;7.202;2022-07-22T11:37:04;19.30;99.90
16627;DHT22;8427;52.204;7.202;2022-07-22T11:39:33;19.40;99.90
16627;DHT22;8427;52.204;7.202;2022-07-22T11:42:02;19.40;99.90
16627;DHT22;8427;52.204;7.202;2022-07-22T11:44:34;19.40;99.90
16627;DHT22;8427;52.204;7.202;2022-07-22T11:47:03;19.50;99.90
16627;DHT22;8427;52.204;7.202;2022-07-22T11:49:34;19.80;99.90
16627;DHT22;8427;52.204;7.202;2022-07-22T11:52:05;19.90;99.90
16627;DHT22;8427;52.204;7.202;2022-07-22T11:54:34;20.00;99.90
16627;DHT22;8427;52.204;7.202;2022-07-22T11:57:03;20.20;99.90
16627;DHT22;8427;52.204;7.202;2022-07-22T11:59:32;20.40;99.90
16627;DHT22;8427;52.204;7.202;2022-07-22T12:02:02;20.10;99.90
16627;DHT22;8427;52.204;7.202;2022-07-22T12:04:34;20.30;99.90
16627;DHT22;8427;52.204;7.202;2022-07-22T12:07:03;20.40;99.90
16627;DHT22;8427;52.204;7.202;2022-07-22T12:09:34;20.50;99.90
16627;DHT22;8427;52.204;7.202;2022-07-22T12:12:04;20.70;99.90
16627;DHT22;8427;52.204;7.202;2022-07-22T12:14:33;20.90;99.90
16627;DHT22;8427;52.204;7.202;2022-07-22T12:17:03;21.10;99.90
16627;DHT22;8427;52.204;7.202;2022-07-22T12:19:36;21.40;99.90
16627;DHT22;8427;52.204;7.202;2022-07-22T12:22:05;21.50;99.90
16627;DHT22;8427;52.204;7.202;2022-07-22T12:24:35;21.40;99.90
16627;DHT22;8427;52.204;7.202;2022-07-22T12:27:06;21.50;99.90
16627;DHT22;8427;52.204;7.202;2022-07-22T12:29:43;21.60;99.90
16627;DHT22;8427;52.204;7.202;2022-07-22T12:32:16;21.70;99.90
16627;DHT22;8427;52.204;7.202;2022-07-22T12:34:58;21.70;99.90
16627;DHT22;8427;52.204;7.202;2022-07-22T12:37:29;21.60;99.90
16627;DHT22;8427;52.204;7.202;2022-07-22T12:40:00;21.80;99.90
16627;DHT22;8427;52.204;7.202;2022-07-22T12:42:32;21.80;99.90
16627;DHT22;8427;52.204;7.202;2022-07-22T12:45:03;21.90;99.90
16627;DHT22;8427;52.204;7.202;2022-07-22T12:50:24;21.40;99.90
16627;DHT22;8427;52.204;7.202;2022-07-22T12:52:53;21.20;99.90
16627;DHT22;8427;52.204;7.202;2022-07-22T12:55:42;21.20;99.90
16627;DHT22;8427;52.204;7.202;2022-07-22T12:58:11;21.10;99.90
16627;DHT22;8427;52.204;7.202;2022-07-22T13:00:45;21.10;99.90
16627;DHT22;8427;52.204;7.202;2022-07-22T13:03:13;21.20;99.90
16627;DHT22;8427;52.204;7.202;2022-07-22T13:05:43;21.10;99.90
16627;DHT22;8427;52.204;7.202;2022-07-22T13:08:11;21.10;99.90
16627;DHT22;8427;52.204;7.202;2022-07-22T13:10:39;21.10;99.90
16627;DHT22;8427;52.204;7.202;2022-07-22T13:13:08;21.20;99.90
16627;DHT22;8427;52.204;7.202;2022-07-22T13:15:36;21.20;99.90
16627;DHT22;8427;52.204;7.202;2022-07-22T13:18:05;21.20;99.90
16627;DHT22;8427;52.204;7.202;2022-07-22T13:20:33;21.30;99.90
16627;DHT22;8427;52.204;7.202;2022-07-22T13:23:03;21.60;99.90
16627;DHT22;8427;52.204;7.202;2022-07-22T13:25:32;21.60;99.90
16627;DHT22;8427;52.204;7.202;2022-07-22T13:28:00;21.60;99.90
16627;DHT22;8427;52.204;7.202;2022-07-22T13:30:28;21.80;99.90
16627;DHT22;8427;52.204;7.202;2022-07-22T13:32:57;22.00;99.90
16627;DHT22;8427;52.204;7.202;2022-07-22T13:35:25;22.50;99.90
16627;DHT22;8427;52.204;7.202;2022-07-22T13:37:54;22.50;99.90
16627;DHT22;8427;52.204;7.202;2022-07-22T13:40:23;22.80;99.90
16627;DHT22;8427;52.204;7.202;2022-07-22T13:42:52;22.80;99.90
16627;DHT22;8427;52.204;7.202;2022-07-22T13:45:20;22.80;99.90
16627;DHT22;8427;52.204;7.202;2022-07-22T13:47:48;22.60;99.90
16627;DHT22;8427;52.204;7.202;2022-07-22T13:50:17;22.40;99.90
16627;DHT22;8427;52.204;7.202;2022-07-22T13:52:45;22.40;99.90
16627;DHT22;8427;52.204;7.202;2022-07-22T13:55:14;22.20;99.90
16627;DHT22;8427;52.204;7.202;2022-07-22T13:57:44;22.10;99.90
16627;DHT22;8427;52.204;7.202;2022-07-22T14:00:14;22.60;99.90
16627;DHT22;8427;52.204;7.202;2022-07-22T14:02:43;22.50;99.90
16627;DHT22;8427;52.204;7.202;2022-07-22T14:05:12;22.60;99.90
16627;DHT22;8427;52.204;7.202;2022-07-22T14:07:41;22.60;99.90
16627;DHT22;8427;52.204;7.202;2022-07-22T14:10:10;22.40;99.90
16627;DHT22;8427;52.204;7.202;2022-07-22T14:12:38;22.50;99.90
16627;DHT22;8427;52.204;7.202;2022-07-22T14:15:09;22.60;99.90
16627;DHT22;8427;52.204;7.202;2022-07-22T14:17:39;22.80;99.90
16627;DHT22;8427;52.204;7.202;2022-07-22T14:20:08;22.70;99.90
16627;DHT22;8427;52.204;7.202;2022-07-22T14:22:37;22.70;99.90
16627;DHT22;8427;52.204;7.202;2022-07-22T14:25:05;22.60;99.90
16627;DHT22;8427;52.204;7.202;2022-07-22T14:27:34;22.70;99.90
16627;DHT22;8427;52.204;7.202;2022-07-22T14:30:02;22.70;99.90
16627;DHT22;8427;52.204;7.202;2022-07-22T14:32:32;22.90;99.90
16627;DHT22;8427;52.204;7.202;2022-07-22T14:35:00;22.80;99.90
16627;DHT22;8427;52.204;7.202;2022-07-22T14:37:29;22.70;99.90
16627;DHT22;8427;52.204;7.202;2022-07-22T14:39:57;22.50;99.90
16627;DHT22;8427;52.204;7.202;2022-07-22T14:42:26;22.50;99.90
16627;DHT22;8427;52.204;7.202;2022-07-22T14:44:54;22.60;99.90
16627;DHT22;8427;52.204;7.202;2022-07-22T14:47:23;22.50;99.90
16627;DHT22;8427;52.204;7.202;2022-07-22T14:49:53;22.90;99.90
16627;DHT22;8427;52.204;7.202;2022-07-22T14:52:21;22.60;99.90
16627;DHT22;8427;52.204;7.202;2022-07-22T14:54:49;22.40;99.90
16627;DHT22;8427;52.204;7.202;2022-07-22T14:57:17;22.50;99.90
16627;DHT22;8427;52.204;7.202;2022-07-22T14:59:46;22.30;99.90
16627;DHT22;8427;52.204;7.202;2022-07-22T15:02:14;22.20;99.90
16627;DHT22;8427;52.204;7.202;2022-07-22T15:04:42;22.00;99.90
16627;DHT22;8427;52.204;7.202;2022-07-22T15:07:12;22.00;99.90
16627;DHT22;8427;52.204;7.202;2022-07-22T15:09:40;22.10;99.90
16627;DHT22;8427;52.204;7.202;2022-07-22T15:12:08;21.90;99.90
16627;DHT22;8427;52.204;7.202;2022-07-22T15:14:56;21.80;99.90
16627;DHT22;8427;52.204;7.202;2022-07-22T15:17:24;21.90;99.90
16627;DHT22;8427;52.204;7.202;2022-07-22T15:19:53;22.00;99.90
16627;DHT22;8427;52.204;7.202;2022-07-22T15:22:22;22.10;99.90
16627;DHT22;8427;52.204;7.202;2022-07-22T15:24:51;21.90;99.90
16627;DHT22;8427;52.204;7.202;2022-07-22T15:27:20;22.10;99.90
16627;DHT22;8427;52.204;7.202;2022-07-22T15:29:52;22.10;99.90
16627;DHT22;8427;52.204;7.202;2022-07-22T15:32:21;22.10;99.90
16627;DHT22;8427;52.204;7.202;2022-07-22T15:34:49;22.10;99.90
16627;DHT22;8427;52.204;7.202;2022-07-22T15:37:17;21.80;99.90
16627;DHT22;8427;52.204;7.202;2022-07-22T15:39:49;21.60;99.90
16627;DHT22;8427;52.204;7.202;2022-07-22T15:42:17;21.40;99.90
16627;DHT22;8427;52.204;7.202;2022-07-22T15:44:45;21.40;99.90
16627;DHT22;8427;52.204;7.202;2022-07-22T15:47:13;21.40;99.90
16627;DHT22;8427;52.204;7.202;2022-07-22T15:49:41;21.40;99.90
16627;DHT22;8427;52.204;7.202;2022-07-22T15:52:19;21.50;99.90
16627;DHT22;8427;52.204;7.202;2022-07-22T15:54:49;21.60;99.90
16627;DHT22;8427;52.204;7.202;2022-07-22T15:57:19;21.60;99.90
16627;DHT22;8427;52.204;7.202;2022-07-22T16:00:06;21.80;99.90
16627;DHT22;8427;52.204;7.202;2022-07-22T16:02:34;21.80;99.90